createdAt,value
2023-11-07T00:01:39.778Z,86.16
2023-11-07T00:04:43.434Z,86.43
2023-11-07T00:07:46.267Z,86.20
2023-11-07T00:10:50.531Z,86.41
2023-11-07T00:13:53.381Z,86.43
2023-11-07T00:16:56.128Z,85.67
2023-11-07T00:19:58.977Z,85.10
2023-11-07T00:23:04.747Z,85.46
2023-11-07T00:26:09.395Z,85.82
2023-11-07T00:29:12.656Z,85.64
2023-11-07T00:32:15.752Z,85.11
2023-11-07T00:35:18.564Z,84.45
2023-11-07T00:38:21.341Z,84.69
2023-11-07T00:41:25.429Z,83.67
2023-11-07T00:44:28.829Z,83.93
2023-11-07T00:47:31.713Z,84.44
2023-11-07T00:50:35.688Z,83.38
2023-11-07T00:53:38.610Z,83.57
2023-11-07T00:56:42.905Z,83.84
2023-11-07T00:59:45.698Z,84.01
2023-11-07T01:02:48.800Z,83.92
2023-11-07T01:05:51.860Z,84.00
2023-11-07T01:08:54.741Z,84.08
2023-11-07T01:11:58.889Z,84.62
2023-11-07T01:15:02.091Z,84.88
2023-11-07T01:18:05.711Z,84.92
2023-11-07T01:21:09.199Z,84.74
2023-11-07T01:24:12.078Z,84.59
2023-11-07T01:27:16.307Z,85.48
2023-11-07T01:30:19.245Z,85.24
2023-11-07T01:33:22.143Z,85.48
2023-11-07T01:36:24.924Z,85.46
2023-11-07T01:39:27.719Z,85.74
2023-11-07T01:42:32.070Z,86.26
2023-11-07T01:45:34.922Z,86.33
2023-11-07T01:48:38.411Z,86.86
2023-11-07T01:51:41.481Z,86.98
2023-11-07T01:54:46.199Z,87.16
2023-11-07T01:57:50.411Z,86.89
2023-11-07T02:00:55.615Z,87.36
2023-11-07T02:04:00.270Z,86.79
2023-11-07T02:07:03.184Z,86.59
2023-11-07T02:10:07.205Z,86.71
2023-11-07T02:13:11.926Z,86.05
2023-11-07T02:16:14.733Z,85.59
2023-11-07T02:19:17.915Z,85.64
2023-11-07T02:22:22.951Z,84.17
2023-11-07T02:25:28.252Z,84.14
2023-11-07T02:28:31.169Z,84.36
2023-11-07T02:31:34.196Z,85.23
2023-11-07T02:34:37.869Z,86.26
2023-11-07T02:37:40.694Z,85.66
2023-11-07T02:40:44.966Z,85.96
2023-11-07T02:43:47.924Z,86.69
2023-11-07T02:46:52.968Z,86.29
2023-11-07T02:49:57.173Z,87.10
2023-11-07T02:53:00.977Z,87.12
2023-11-07T02:56:06.218Z,86.91
2023-11-07T02:59:09.016Z,87.26
2023-11-07T03:02:12.479Z,87.53
2023-11-07T03:05:15.657Z,87.97
2023-11-07T03:08:18.717Z,87.46
2023-11-07T03:11:23.942Z,87.29
2023-11-07T03:14:26.912Z,87.06
2023-11-07T03:17:29.789Z,86.94
2023-11-07T03:20:33.645Z,86.18
2023-11-07T03:23:36.768Z,86.11
2023-11-07T03:26:40.997Z,85.90
2023-11-07T03:29:44.490Z,86.14
2023-11-07T03:32:47.429Z,87.02
2023-11-07T03:35:50.277Z,86.64
2023-11-07T03:38:53.215Z,86.62
2023-11-07T03:41:57.338Z,87.21
2023-11-07T03:45:00.645Z,87.05
2023-11-07T03:48:03.574Z,86.97
2023-11-07T03:51:07.365Z,86.86
2023-11-07T03:54:10.408Z,86.71
2023-11-07T03:57:14.584Z,86.61
2023-11-07T04:00:19.032Z,86.74
2023-11-07T04:03:23.416Z,86.30
2023-11-07T04:06:26.421Z,86.25
2023-11-07T04:09:29.293Z,85.85
2023-11-07T04:12:34.146Z,85.90
2023-11-07T04:15:37.282Z,85.72
2023-11-07T04:18:41.062Z,85.76
2023-11-07T04:21:44.098Z,85.69
2023-11-07T04:24:46.899Z,85.87
2023-11-07T04:27:51.086Z,85.75
2023-11-07T04:30:53.949Z,86.04
2023-11-07T04:33:56.803Z,86.07
2023-11-07T04:36:59.915Z,85.96
2023-11-07T04:40:03.659Z,85.92
2023-11-07T04:43:08.935Z,85.83
2023-11-07T04:46:14.177Z,85.02
2023-11-07T04:49:17.134Z,84.61
2023-11-07T04:52:20.617Z,84.71
2023-11-07T04:55:24.176Z,84.82
2023-11-07T04:58:28.290Z,84.33
2023-11-07T05:01:31.566Z,83.89
2023-11-07T05:04:36.115Z,83.54
2023-11-07T05:07:40.108Z,83.52
2023-11-07T05:10:42.958Z,83.08
2023-11-07T05:13:47.156Z,83.09
2023-11-07T05:16:49.928Z,83.03
2023-11-07T05:19:52.800Z,83.03
2023-11-07T05:22:55.946Z,82.17
2023-11-07T05:25:58.772Z,82.18
2023-11-07T05:29:03.022Z,81.75
2023-11-07T05:32:06.304Z,82.17
2023-11-07T05:35:10.238Z,81.78
2023-11-07T05:38:13.633Z,81.55
2023-11-07T05:41:18.166Z,82.27
2023-11-07T05:44:22.639Z,82.51
2023-11-07T05:47:25.379Z,83.34
2023-11-07T05:50:28.447Z,83.69
2023-11-07T05:53:31.291Z,83.94
2023-11-07T05:56:34.100Z,84.11
2023-11-07T05:59:38.527Z,83.68
2023-11-07T06:02:41.915Z,83.65
2023-11-07T06:05:46.090Z,84.10
2023-11-07T06:08:49.607Z,83.80
2023-11-07T06:11:52.583Z,83.94
2023-11-07T06:14:56.977Z,84.58
2023-11-07T06:17:59.902Z,84.58
2023-11-07T06:21:02.860Z,84.40
2023-11-07T06:24:06.866Z,85.09
2023-11-07T06:27:12.187Z,84.36
2023-11-07T06:30:18.117Z,85.13
2023-11-07T06:33:21.854Z,84.51
2023-11-07T06:36:25.400Z,84.55
2023-11-07T06:39:28.530Z,83.24
2023-11-07T06:42:31.471Z,82.37
2023-11-07T06:45:35.675Z,81.75
2023-11-07T06:48:38.501Z,81.47
2023-11-07T06:51:41.418Z,81.74
2023-11-07T06:54:44.629Z,81.36
2023-11-07T06:57:47.723Z,80.46
2023-11-07T07:00:53.513Z,80.12
2023-11-07T07:03:56.821Z,79.30
2023-11-07T07:06:59.843Z,79.63
2023-11-07T07:10:02.661Z,78.83
2023-11-07T07:13:05.514Z,78.52
2023-11-07T07:16:10.207Z,79.66
2023-11-07T07:19:18.866Z,79.37
2023-11-07T07:22:28.721Z,78.66
2023-11-07T07:25:33.448Z,78.56
2023-11-07T07:28:38.358Z,79.07
2023-11-07T07:31:43.161Z,79.45
2023-11-07T07:34:46.090Z,78.48
2023-11-07T07:37:52.665Z,76.92
2023-11-07T07:40:55.868Z,77.61
2023-11-07T07:44:01.321Z,76.30
2023-11-07T07:47:06.126Z,76.22
2023-11-07T07:50:11.791Z,75.07
2023-11-07T07:53:16.618Z,75.66
2023-11-07T07:56:19.666Z,76.64
2023-11-07T07:59:24.373Z,77.10
2023-11-07T08:02:28.634Z,77.67
2023-11-07T08:05:31.844Z,76.32
2023-11-07T08:08:34.941Z,75.93
2023-11-07T08:11:37.728Z,76.22
2023-11-07T08:14:42.173Z,74.50
2023-11-07T08:17:48.263Z,75.16
2023-11-07T08:20:52.449Z,74.85
2023-11-07T08:23:55.513Z,74.29
2023-11-07T08:26:58.329Z,74.17
2023-11-07T08:30:01.735Z,73.56
2023-11-07T08:33:06.014Z,73.87
2023-11-07T08:36:11.062Z,73.99
2023-11-07T08:39:24.902Z,73.88
2023-11-07T08:42:28.377Z,73.09
2023-11-07T08:45:33.936Z,73.63
2023-11-07T08:48:45.568Z,75.25
2023-11-07T08:51:52.941Z,75.93
2023-11-07T08:54:56.022Z,77.11
2023-11-07T08:57:59.120Z,76.60
2023-11-07T09:01:02.555Z,77.34
2023-11-07T09:04:10.740Z,77.28
2023-11-07T09:07:13.801Z,77.42
2023-11-07T09:10:16.640Z,78.06
2023-11-07T09:13:19.418Z,77.85
2023-11-07T09:16:22.435Z,76.58
2023-11-07T09:19:26.677Z,76.15
2023-11-07T09:22:29.722Z,73.79
2023-11-07T09:25:32.698Z,73.68
2023-11-07T09:28:35.532Z,73.26
2023-11-07T09:31:38.405Z,73.73
2023-11-07T09:34:42.533Z,72.35
2023-11-07T09:37:45.760Z,72.33
2023-11-07T09:40:49.116Z,72.03
2023-11-07T09:43:52.952Z,72.84
2023-11-07T09:46:57.142Z,72.33
2023-11-07T09:50:04.193Z,73.45
2023-11-07T09:53:10.448Z,71.82
2023-11-07T09:56:15.061Z,71.77
2023-11-07T09:59:31.510Z,73.29
2023-11-07T10:02:35.474Z,73.33
2023-11-07T10:05:41.023Z,72.69
2023-11-07T10:08:44.270Z,70.75
2023-11-07T10:11:50.640Z,70.24
2023-11-07T10:14:54.496Z,69.05
2023-11-07T10:18:01.653Z,70.10
2023-11-07T10:21:06.484Z,71.10
2023-11-07T10:24:11.441Z,68.49
2023-11-07T10:27:16.508Z,67.18
2023-11-07T10:30:19.351Z,66.71
2023-11-07T10:33:30.503Z,67.16
2023-11-07T10:36:42.175Z,68.57
2023-11-07T10:39:58.268Z,68.12
2023-11-07T10:43:02.355Z,69.31
2023-11-07T10:46:06.992Z,69.42
2023-11-07T10:49:12.045Z,67.90
2023-11-07T10:52:18.344Z,66.83
2023-11-07T10:55:21.526Z,67.30
2023-11-07T10:58:26.583Z,66.81
2023-11-07T11:01:30.415Z,68.08
2023-11-07T11:04:36.596Z,69.48
2023-11-07T11:07:45.452Z,69.35
2023-11-07T11:10:48.831Z,72.07
2023-11-07T11:13:53.180Z,73.59
2023-11-07T11:17:06.480Z,74.55
2023-11-07T11:20:23.736Z,75.60
2023-11-07T11:23:40.692Z,76.70
2023-11-07T11:26:49.489Z,77.49
2023-11-07T11:29:52.571Z,77.45
2023-11-07T11:33:07.603Z,77.64
2023-11-07T11:36:36.475Z,78.75
2023-11-07T11:39:48.133Z,79.38
2023-11-07T11:43:06.390Z,78.46
2023-11-07T11:46:39.103Z,79.15
2023-11-07T11:50:26.797Z,79.40
2023-11-07T11:53:36.166Z,79.25
2023-11-07T11:57:09.335Z,79.24
2023-11-07T12:00:13.214Z,76.99
2023-11-07T12:03:21.183Z,75.89
2023-11-07T12:06:24.911Z,73.94
2023-11-07T12:09:31.552Z,73.30
2023-11-07T12:12:38.306Z,71.60
2023-11-07T12:15:44.703Z,71.99
2023-11-07T12:18:49.737Z,72.92
2023-11-07T12:21:54.087Z,73.31
2023-11-07T12:25:07.398Z,70.89
2023-11-07T12:28:11.941Z,68.95
2023-11-07T12:31:23.317Z,68.87
2023-11-07T12:34:33.347Z,69.58
2023-11-07T12:37:36.585Z,66.54
2023-11-07T12:40:41.172Z,64.93
2023-11-07T12:43:47.380Z,66.31
2023-11-07T12:46:51.197Z,67.03
2023-11-07T12:49:56.722Z,66.63
2023-11-07T12:53:01.102Z,66.92
2023-11-07T12:56:04.699Z,68.33
2023-11-07T12:59:12.832Z,67.27
2023-11-07T13:02:15.748Z,66.16
2023-11-07T13:05:18.583Z,64.13
2023-11-07T13:08:27.818Z,65.74
2023-11-07T13:11:32.192Z,65.22
2023-11-07T13:14:36.934Z,65.05
2023-11-07T13:17:40.316Z,65.32
2023-11-07T13:20:43.093Z,64.24
2023-11-07T13:23:45.920Z,65.93
2023-11-07T13:26:49.142Z,66.36
2023-11-07T13:29:53.698Z,66.91
2023-11-07T13:32:57.013Z,66.63
2023-11-07T13:36:00.254Z,66.21
2023-11-07T13:39:05.069Z,65.97
2023-11-07T13:42:08.296Z,67.80
2023-11-07T13:45:13.797Z,67.38
2023-11-07T13:48:18.158Z,67.78
2023-11-07T13:51:22.272Z,68.34
2023-11-07T13:54:25.638Z,68.20
2023-11-07T13:57:28.350Z,68.12
2023-11-07T14:00:33.388Z,67.94
2023-11-07T14:03:38.220Z,68.25
2023-11-07T14:06:41.481Z,67.64
2023-11-07T14:09:44.285Z,69.36
2023-11-07T14:12:48.650Z,68.67
2023-11-07T14:15:53.519Z,71.03
2023-11-07T14:18:56.785Z,73.68
2023-11-07T14:22:00.020Z,76.78
2023-11-07T14:25:04.007Z,78.22
2023-11-07T14:28:07.959Z,80.05
2023-11-07T14:31:13.014Z,80.35
2023-11-07T14:34:16.102Z,81.27
2023-11-07T14:37:19.467Z,81.63
2023-11-07T14:40:22.904Z,81.35
2023-11-07T14:43:26.022Z,81.53
2023-11-07T14:46:30.215Z,80.47
2023-11-07T14:49:34.089Z,80.86
2023-11-07T14:52:40.988Z,77.63
2023-11-07T14:55:44.302Z,75.21
2023-11-07T14:58:47.874Z,73.86
2023-11-07T15:01:52.012Z,74.05
2023-11-07T15:04:54.891Z,74.06
2023-11-07T15:07:58.732Z,74.05
2023-11-07T15:11:02.093Z,73.04
2023-11-07T15:14:06.354Z,72.36
2023-11-07T15:17:10.528Z,72.43
2023-11-07T15:20:14.163Z,72.90
2023-11-07T15:23:17.525Z,71.97
2023-11-07T15:26:20.226Z,72.57
2023-11-07T15:29:23.858Z,72.51
2023-11-07T15:32:28.186Z,72.11
2023-11-07T15:35:37.581Z,72.72
2023-11-07T15:38:43.527Z,72.80
2023-11-07T15:41:46.437Z,73.36
2023-11-07T15:44:50.062Z,74.40
2023-11-07T15:47:54.309Z,73.59
2023-11-07T15:50:57.345Z,74.21
2023-11-07T15:54:00.369Z,74.31
2023-11-07T15:57:03.199Z,74.28
2023-11-07T16:00:11.461Z,72.97
2023-11-07T16:03:17.615Z,73.13
2023-11-07T16:06:21.106Z,72.47
2023-11-07T16:09:24.101Z,71.19
2023-11-07T16:12:27.163Z,70.40
2023-11-07T16:15:30.172Z,69.62
2023-11-07T16:18:36.171Z,70.41
2023-11-07T16:21:39.085Z,70.82
2023-11-07T16:24:41.967Z,71.26
2023-11-07T16:27:44.941Z,71.35
2023-11-07T16:30:47.761Z,71.32
2023-11-07T16:33:52.132Z,71.94
2023-11-07T16:36:55.034Z,72.44
2023-11-07T16:39:57.854Z,72.07
2023-11-07T16:43:01.043Z,72.12
2023-11-07T16:46:03.872Z,73.38
2023-11-07T16:49:08.494Z,73.02
2023-11-07T16:52:12.215Z,72.89
2023-11-07T16:55:15.658Z,73.98
2023-11-07T16:58:18.707Z,73.63
2023-11-07T17:01:21.634Z,73.46
2023-11-07T17:04:28.224Z,71.51
2023-11-07T17:07:31.160Z,71.78
2023-11-07T17:10:33.924Z,72.41
2023-11-07T17:13:36.674Z,72.51
2023-11-07T17:16:40.255Z,72.59
2023-11-07T17:19:50.125Z,73.74
2023-11-07T17:22:52.889Z,73.98
2023-11-07T17:25:56.093Z,73.60
2023-11-07T17:28:59.035Z,73.79
2023-11-07T17:32:01.802Z,74.40
2023-11-07T17:35:06.821Z,74.85
2023-11-07T17:38:10.720Z,75.95
2023-11-07T17:41:14.333Z,75.82
2023-11-07T17:44:18.985Z,76.21
2023-11-07T17:47:22.048Z,76.19
2023-11-07T17:50:26.246Z,76.00
2023-11-07T17:53:29.166Z,75.45
2023-11-07T17:56:32.125Z,75.65
2023-11-07T17:59:34.929Z,75.91
2023-11-07T18:02:38.582Z,76.78
2023-11-07T18:05:43.673Z,76.68
2023-11-07T18:08:48.345Z,77.18
2023-11-07T18:11:52.340Z,76.52
2023-11-07T18:14:55.317Z,77.06
2023-11-07T18:17:59.640Z,77.38
2023-11-07T18:21:04.519Z,77.41
2023-11-07T18:24:08.093Z,77.06
2023-11-07T18:27:10.854Z,77.26
2023-11-07T18:30:14.193Z,77.10
2023-11-07T18:33:17.153Z,76.82
2023-11-07T18:36:21.525Z,77.81
2023-11-07T18:39:24.306Z,77.49
2023-11-07T18:42:28.104Z,77.53
2023-11-07T18:45:31.039Z,78.07
2023-11-07T18:48:34.545Z,78.69
2023-11-07T18:51:39.159Z,78.21
2023-11-07T18:54:42.493Z,78.25
2023-11-07T18:57:45.548Z,77.89
2023-11-07T19:00:48.325Z,77.39
2023-11-07T19:03:51.934Z,77.78
2023-11-07T19:06:56.259Z,78.02
2023-11-07T19:09:58.940Z,77.74
2023-11-07T19:13:02.946Z,78.23
2023-11-07T19:16:06.231Z,77.58
2023-11-07T19:19:09.170Z,76.74
2023-11-07T19:22:13.466Z,76.75
2023-11-07T19:25:16.540Z,77.26
2023-11-07T19:28:19.887Z,77.85
2023-11-07T19:31:23.385Z,78.37
2023-11-07T19:34:26.385Z,79.03
2023-11-07T19:37:30.922Z,79.02
2023-11-07T19:40:34.468Z,78.78
2023-11-07T19:43:42.533Z,79.62
2023-11-07T19:46:46.221Z,79.81
2023-11-07T19:49:49.357Z,79.26
2023-11-07T19:52:58.198Z,80.19
2023-11-07T19:56:10.577Z,79.02
2023-11-07T19:59:14.810Z,79.54
2023-11-07T20:02:18.541Z,80.63
2023-11-07T20:05:22.356Z,81.10
2023-11-07T20:08:29.706Z,80.62
2023-11-07T20:11:33.553Z,80.94
2023-11-07T20:14:38.181Z,80.40
2023-11-07T20:17:41.199Z,79.64
2023-11-07T20:20:46.133Z,80.26
2023-11-07T20:23:50.935Z,79.00
2023-11-07T20:26:53.904Z,79.37
2023-11-07T20:29:56.865Z,80.62
2023-11-07T20:33:00.497Z,82.01
2023-11-07T20:36:03.440Z,82.45
2023-11-07T20:39:08.122Z,83.30
2023-11-07T20:42:12.539Z,84.41
2023-11-07T20:45:15.572Z,84.60
2023-11-07T20:48:18.679Z,84.52
2023-11-07T20:51:21.560Z,84.45
2023-11-07T20:54:25.849Z,84.77
2023-11-07T20:57:28.818Z,84.23
2023-11-07T21:00:31.777Z,84.45
2023-11-07T21:03:34.791Z,83.71
2023-11-07T21:06:37.743Z,83.18
2023-11-07T21:09:41.965Z,82.45
2023-11-07T21:12:44.848Z,81.98
2023-11-07T21:15:47.715Z,81.80
2023-11-07T21:18:50.696Z,81.64
2023-11-07T21:22:00.160Z,81.54
2023-11-07T21:25:06.129Z,81.87
2023-11-07T21:28:10.127Z,81.53
2023-11-07T21:31:12.982Z,81.54
2023-11-07T21:34:16.487Z,80.99
2023-11-07T21:37:20.086Z,80.75
2023-11-07T21:40:24.289Z,80.68
2023-11-07T21:43:27.310Z,80.25
2023-11-07T21:46:30.118Z,80.54
2023-11-07T21:49:33.013Z,80.28
2023-11-07T21:52:35.888Z,80.16
2023-11-07T21:55:41.783Z,79.67
2023-11-07T21:58:44.745Z,79.19
2023-11-07T22:01:48.227Z,79.27
2023-11-07T22:04:51.084Z,78.97
2023-11-07T22:07:54.197Z,78.80
2023-11-07T22:10:58.427Z,79.24
2023-11-07T22:14:01.287Z,79.40
2023-11-07T22:17:07.525Z,78.73
2023-11-07T22:20:11.886Z,77.39
2023-11-07T22:23:14.740Z,77.75
2023-11-07T22:26:19.040Z,78.39
2023-11-07T22:29:22.069Z,78.37
2023-11-07T22:32:24.975Z,77.98
2023-11-07T22:35:30.088Z,79.19
2023-11-07T22:38:32.890Z,79.48
2023-11-07T22:41:37.097Z,80.65
2023-11-07T22:44:39.984Z,79.66
2023-11-07T22:47:44.408Z,79.87
2023-11-07T22:50:47.582Z,80.44
2023-11-07T22:53:50.600Z,81.37
2023-11-07T22:56:54.883Z,81.89
2023-11-07T22:59:57.807Z,82.19
2023-11-07T23:03:00.790Z,82.02
2023-11-07T23:06:03.864Z,81.53
2023-11-07T23:09:08.226Z,81.52
2023-11-07T23:12:13.391Z,81.28
2023-11-07T23:15:16.823Z,80.66
2023-11-07T23:18:19.855Z,80.11
2023-11-07T23:21:22.751Z,80.34
2023-11-07T23:24:26.520Z,79.97
2023-11-07T23:27:31.102Z,79.07
2023-11-07T23:30:34.437Z,79.13
2023-11-07T23:33:38.404Z,78.75
2023-11-07T23:36:41.277Z,77.76
2023-11-07T23:39:44.144Z,77.71
2023-11-07T23:42:48.333Z,77.64
2023-11-07T23:45:51.418Z,77.69
2023-11-07T23:48:54.472Z,78.10
2023-11-07T23:51:57.354Z,78.23
2023-11-07T23:55:00.904Z,77.54
2023-11-07T23:58:06.038Z,77.75
